sensor_id;sensor_type;location;lat;lon;timestamp;pressure;altitude;pressure_sealevel;temperature;humidity
36726;BME280;44936;52.086;5.150;2023-07-29T00:01:17;100548.97;;;17.95;100.00
36726;BME280;44936;52.086;5.150;2023-07-29T00:03:43;100543.22;;;18.08;100.00
36726;BME280;44936;52.086;5.150;2023-07-29T00:06:09;100513.06;;;18.11;100.00
36726;BME280;44936;52.086;5.150;2023-07-29T00:08:35;100484.75;;;18.11;100.00
36726;BME280;44936;52.086;5.150;2023-07-29T00:11:00;100466.84;;;18.17;100.00
36726;BME280;44936;52.086;5.150;2023-07-29T00:13:25;100437.81;;;18.12;100.00
36726;BME280;44936;52.086;5.150;2023-07-29T00:15:53;100437.00;;;18.10;100.00
36726;BME280;44936;52.086;5.150;2023-07-29T00:18:19;100413.69;;;18.18;100.00
36726;BME280;44936;52.086;5.150;2023-07-29T00:20:44;100405.84;;;18.15;100.00
36726;BME280;44936;52.086;5.150;2023-07-29T00:23:10;100397.34;;;18.05;100.00
36726;BME280;44936;52.086;5.150;2023-07-29T00:25:36;100426.44;;;18.08;100.00
36726;BME280;44936;52.086;5.150;2023-07-29T00:28:01;100449.63;;;18.03;100.00
36726;BME280;44936;52.086;5.150;2023-07-29T00:30:26;100486.06;;;17.98;100.00
36726;BME280;44936;52.086;5.150;2023-07-29T00:32:52;100516.28;;;17.94;100.00
36726;BME280;44936;52.086;5.150;2023-07-29T00:35:17;100523.31;;;17.95;100.00
36726;BME280;44936;52.086;5.150;2023-07-29T00:37:43;100516.78;;;18.05;100.00
36726;BME280;44936;52.086;5.150;2023-07-29T00:40:15;100497.22;;;18.08;100.00
36726;BME280;44936;52.086;5.150;2023-07-29T00:42:44;100491.09;;;18.06;100.00
36726;BME280;44936;52.086;5.150;2023-07-29T00:45:09;100509.63;;;18.07;100.00
36726;BME280;44936;52.086;5.150;2023-07-29T00:47:35;100547.09;;;17.98;100.00
36726;BME280;44936;52.086;5.150;2023-07-29T00:50:01;100610.81;;;17.97;100.00
36726;BME280;44936;52.086;5.150;2023-07-29T00:52:26;100660.16;;;18.04;100.00
36726;BME280;44936;52.086;5.150;2023-07-29T00:54:52;100691.03;;;18.06;100.00
36726;BME280;44936;52.086;5.150;2023-07-29T00:57:19;100700.72;;;18.07;100.00
36726;BME280;44936;52.086;5.150;2023-07-29T00:59:44;100723.03;;;18.00;100.00
36726;BME280;44936;52.086;5.150;2023-07-29T01:02:09;100736.03;;;18.09;100.00
36726;BME280;44936;52.086;5.150;2023-07-29T01:04:35;100729.91;;;18.07;100.00
36726;BME280;44936;52.086;5.150;2023-07-29T01:07:21;100740.41;;;18.12;100.00
36726;BME280;44936;52.086;5.150;2023-07-29T01:12:51;100753.03;;;18.04;100.00
36726;BME280;44936;52.086;5.150;2023-07-29T01:15:23;100758.59;;;17.95;100.00
36726;BME280;44936;52.086;5.150;2023-07-29T01:17:52;100768.38;;;17.93;100.00
36726;BME280;44936;52.086;5.150;2023-07-29T01:20:20;100771.69;;;18.01;100.00
36726;BME280;44936;52.086;5.150;2023-07-29T01:22:46;100771.81;;;17.96;100.00
36726;BME280;44936;52.086;5.150;2023-07-29T01:25:14;100771.91;;;17.93;100.00
36726;BME280;44936;52.086;5.150;2023-07-29T01:27:42;100778.06;;;17.95;100.00
36726;BME280;44936;52.086;5.150;2023-07-29T01:30:08;100762.13;;;17.95;100.00
36726;BME280;44936;52.086;5.150;2023-07-29T01:32:50;100741.94;;;17.90;100.00
36726;BME280;44936;52.086;5.150;2023-07-29T01:35:23;100746.16;;;17.97;100.00
36726;BME280;44936;52.086;5.150;2023-07-29T01:37:53;100747.34;;;17.87;100.00
36726;BME280;44936;52.086;5.150;2023-07-29T01:40:24;100737.34;;;17.96;100.00
36726;BME280;44936;52.086;5.150;2023-07-29T01:42:51;100725.97;;;17.91;100.00
36726;BME280;44936;52.086;5.150;2023-07-29T01:45:17;100720.75;;;17.88;100.00
36726;BME280;44936;52.086;5.150;2023-07-29T01:47:42;100701.16;;;17.92;100.00
36726;BME280;44936;52.086;5.150;2023-07-29T01:50:08;100683.56;;;17.90;100.00
36726;BME280;44936;52.086;5.150;2023-07-29T01:52:34;100692.44;;;17.89;100.00
36726;BME280;44936;52.086;5.150;2023-07-29T01:54:59;100684.44;;;17.90;100.00
36726;BME280;44936;52.086;5.150;2023-07-29T01:57:25;100674.69;;;17.91;100.00
36726;BME280;44936;52.086;5.150;2023-07-29T01:59:50;100681.78;;;17.90;100.00
36726;BME280;44936;52.086;5.150;2023-07-29T02:02:15;100661.53;;;17.88;100.00
36726;BME280;44936;52.086;5.150;2023-07-29T02:04:41;100649.00;;;17.91;100.00
36726;BME280;44936;52.086;5.150;2023-07-29T02:07:06;100644.78;;;17.86;100.00
36726;BME280;44936;52.086;5.150;2023-07-29T02:09:32;100661.88;;;17.75;100.00
36726;BME280;44936;52.086;5.150;2023-07-29T02:11:57;100676.69;;;17.82;100.00
36726;BME280;44936;52.086;5.150;2023-07-29T02:14:23;100669.81;;;17.75;100.00
36726;BME280;44936;52.086;5.150;2023-07-29T02:16:48;100684.66;;;17.82;100.00
36726;BME280;44936;52.086;5.150;2023-07-29T02:19:14;100685.88;;;17.71;100.00
36726;BME280;44936;52.086;5.150;2023-07-29T02:21:40;100685.31;;;17.60;100.00
36726;BME280;44936;52.086;5.150;2023-07-29T02:24:05;100735.25;;;17.76;100.00
36726;BME280;44936;52.086;5.150;2023-07-29T02:26:30;100746.75;;;17.77;100.00
36726;BME280;44936;52.086;5.150;2023-07-29T02:28:56;100762.06;;;17.64;100.00
36726;BME280;44936;52.086;5.150;2023-07-29T02:31:22;100783.16;;;17.70;100.00
36726;BME280;44936;52.086;5.150;2023-07-29T02:33:48;100802.88;;;17.60;100.00
36726;BME280;44936;52.086;5.150;2023-07-29T02:36:15;100796.13;;;17.47;100.00
36726;BME280;44936;52.086;5.150;2023-07-29T02:38:42;100812.84;;;17.49;100.00
36726;BME280;44936;52.086;5.150;2023-07-29T02:41:11;100823.25;;;17.58;100.00
36726;BME280;44936;52.086;5.150;2023-07-29T02:43:38;100815.41;;;17.53;100.00
36726;BME280;44936;52.086;5.150;2023-07-29T02:46:04;100818.09;;;17.52;100.00
36726;BME280;44936;52.086;5.150;2023-07-29T02:48:29;100836.72;;;17.49;100.00
36726;BME280;44936;52.086;5.150;2023-07-29T02:50:55;100835.06;;;17.45;100.00
36726;BME280;44936;52.086;5.150;2023-07-29T02:53:24;100839.31;;;17.52;100.00
36726;BME280;44936;52.086;5.150;2023-07-29T02:55:50;100834.00;;;17.52;100.00
36726;BME280;44936;52.086;5.150;2023-07-29T02:58:15;100796.84;;;17.53;100.00
36726;BME280;44936;52.086;5.150;2023-07-29T03:00:41;100337.91;;;17.05;100.00
36726;BME280;44936;52.086;5.150;2023-07-29T03:03:09;100180.91;;;17.25;100.00
36726;BME280;44936;52.086;5.150;2023-07-29T03:05:34;100107.44;;;17.28;100.00
36726;BME280;44936;52.086;5.150;2023-07-29T03:08:00;100086.13;;;17.32;100.00
36726;BME280;44936;52.086;5.150;2023-07-29T03:10:25;100095.44;;;17.18;100.00
36726;BME280;44936;52.086;5.150;2023-07-29T03:12:51;100128.16;;;17.17;100.00
36726;BME280;44936;52.086;5.150;2023-07-29T03:15:18;100202.53;;;17.38;100.00
36726;BME280;44936;52.086;5.150;2023-07-29T03:17:43;100279.56;;;17.33;100.00
36726;BME280;44936;52.086;5.150;2023-07-29T03:20:09;100357.06;;;17.41;100.00
36726;BME280;44936;52.086;5.150;2023-07-29T03:22:35;100442.31;;;17.27;100.00
36726;BME280;44936;52.086;5.150;2023-07-29T03:25:00;100509.97;;;17.41;100.00
36726;BME280;44936;52.086;5.150;2023-07-29T03:27:25;100543.69;;;17.36;100.00
36726;BME280;44936;52.086;5.150;2023-07-29T03:29:51;100580.81;;;17.36;100.00
36726;BME280;44936;52.086;5.150;2023-07-29T03:32:16;100633.81;;;17.36;100.00
36726;BME280;44936;52.086;5.150;2023-07-29T03:34:41;100690.16;;;17.44;100.00
36726;BME280;44936;52.086;5.150;2023-07-29T03:37:07;100715.97;;;17.37;100.00
36726;BME280;44936;52.086;5.150;2023-07-29T03:39:32;100726.84;;;17.26;100.00
36726;BME280;44936;52.086;5.150;2023-07-29T03:41:59;100760.00;;;17.43;100.00
36726;BME280;44936;52.086;5.150;2023-07-29T03:44:24;100783.47;;;17.24;100.00
36726;BME280;44936;52.086;5.150;2023-07-29T03:46:50;100807.75;;;17.07;100.00
36726;BME280;44936;52.086;5.150;2023-07-29T03:49:16;100869.22;;;17.23;100.00
36726;BME280;44936;52.086;5.150;2023-07-29T03:51:41;100867.44;;;17.23;100.00
36726;BME280;44936;52.086;5.150;2023-07-29T03:54:06;100859.66;;;17.16;100.00
36726;BME280;44936;52.086;5.150;2023-07-29T03:56:32;100875.38;;;17.23;100.00
36726;BME280;44936;52.086;5.150;2023-07-29T03:59:06;100874.53;;;17.21;100.00
36726;BME280;44936;52.086;5.150;2023-07-29T04:01:32;100862.19;;;17.20;100.00
36726;BME280;44936;52.086;5.150;2023-07-29T04:03:58;100834.81;;;17.20;100.00
36726;BME280;44936;52.086;5.150;2023-07-29T04:06:24;100821.25;;;16.95;100.00
36726;BME280;44936;52.086;5.150;2023-07-29T04:08:50;100770.00;;;16.96;100.00
36726;BME280;44936;52.086;5.150;2023-07-29T04:11:15;100754.19;;;16.93;100.00
36726;BME280;44936;52.086;5.150;2023-07-29T04:13:40;100741.81;;;16.93;100.00
36726;BME280;44936;52.086;5.150;2023-07-29T04:16:06;100783.06;;;17.05;100.00
36726;BME280;44936;52.086;5.150;2023-07-29T04:18:32;100793.72;;;17.02;100.00
36726;BME280;44936;52.086;5.150;2023-07-29T04:20:57;100798.16;;;17.02;100.00
36726;BME280;44936;52.086;5.150;2023-07-29T04:23:23;100811.50;;;16.98;100.00
36726;BME280;44936;52.086;5.150;2023-07-29T04:25:48;100831.06;;;16.91;100.00
36726;BME280;44936;52.086;5.150;2023-07-29T04:28:15;100835.16;;;17.05;100.00
36726;BME280;44936;52.086;5.150;2023-07-29T04:30:40;100844.97;;;17.01;100.00
36726;BME280;44936;52.086;5.150;2023-07-29T04:33:05;100824.34;;;16.77;100.00
36726;BME280;44936;52.086;5.150;2023-07-29T04:35:31;100858.53;;;16.89;100.00
36726;BME280;44936;52.086;5.150;2023-07-29T04:37:56;100875.31;;;16.88;100.00
36726;BME280;44936;52.086;5.150;2023-07-29T04:40:21;100886.91;;;16.82;100.00
36726;BME280;44936;52.086;5.150;2023-07-29T04:42:49;100911.38;;;16.93;100.00
36726;BME280;44936;52.086;5.150;2023-07-29T04:45:14;100914.06;;;16.92;100.00
36726;BME280;44936;52.086;5.150;2023-07-29T04:47:41;100911.38;;;16.93;100.00
36726;BME280;44936;52.086;5.150;2023-07-29T04:50:07;100912.53;;;16.82;100.00
36726;BME280;44936;52.086;5.150;2023-07-29T04:52:32;100926.41;;;16.93;100.00
36726;BME280;44936;52.086;5.150;2023-07-29T04:54:57;100932.75;;;16.87;100.00
36726;BME280;44936;52.086;5.150;2023-07-29T04:57:23;100942.22;;;16.97;100.00
36726;BME280;44936;52.086;5.150;2023-07-29T04:59:48;100934.16;;;17.02;100.00
36726;BME280;44936;52.086;5.150;2023-07-29T05:02:13;100936.78;;;17.05;100.00
36726;BME280;44936;52.086;5.150;2023-07-29T05:04:39;100933.41;;;16.97;100.00
36726;BME280;44936;52.086;5.150;2023-07-29T05:07:04;100949.13;;;17.05;100.00
36726;BME280;44936;52.086;5.150;2023-07-29T05:09:30;100956.34;;;16.98;100.00
36726;BME280;44936;52.086;5.150;2023-07-29T05:11:55;100952.84;;;16.96;100.00
36726;BME280;44936;52.086;5.150;2023-07-29T05:14:20;100975.81;;;16.97;100.00
36726;BME280;44936;52.086;5.150;2023-07-29T05:16:46;100983.44;;;17.11;100.00
36726;BME280;44936;52.086;5.150;2023-07-29T05:19:11;100976.31;;;17.14;100.00
36726;BME280;44936;52.086;5.150;2023-07-29T05:21:37;100978.06;;;17.15;100.00
36726;BME280;44936;52.086;5.150;2023-07-29T05:24:03;100980.56;;;17.21;100.00
36726;BME280;44936;52.086;5.150;2023-07-29T05:26:28;100975.31;;;17.18;100.00
36726;BME280;44936;52.086;5.150;2023-07-29T05:28:54;100976.22;;;17.17;100.00
36726;BME280;44936;52.086;5.150;2023-07-29T05:31:19;100982.28;;;17.24;100.00
36726;BME280;44936;52.086;5.150;2023-07-29T05:33:44;100980.41;;;17.27;100.00
36726;BME280;44936;52.086;5.150;2023-07-29T05:36:10;101003.50;;;17.22;100.00
36726;BME280;44936;52.086;5.150;2023-07-29T05:38:35;101011.25;;;17.33;100.00
36726;BME280;44936;52.086;5.150;2023-07-29T05:41:00;100995.75;;;17.13;100.00
36726;BME280;44936;52.086;5.150;2023-07-29T05:43:26;101005.94;;;17.33;100.00
36726;BME280;44936;52.086;5.150;2023-07-29T05:45:52;101006.81;;;17.34;100.00
36726;BME280;44936;52.086;5.150;2023-07-29T05:48:19;100986.50;;;17.31;100.00
36726;BME280;44936;52.086;5.150;2023-07-29T05:50:45;100994.16;;;17.45;100.00
36726;BME280;44936;52.086;5.150;2023-07-29T05:53:10;100997.56;;;17.51;100.00
36726;BME280;44936;52.086;5.150;2023-07-29T05:55:35;101000.88;;;17.61;100.00
36726;BME280;44936;52.086;5.150;2023-07-29T05:58:01;101012.47;;;17.55;100.00
36726;BME280;44936;52.086;5.150;2023-07-29T06:00:26;101005.47;;;17.53;100.00
36726;BME280;44936;52.086;5.150;2023-07-29T06:02:51;101015.66;;;17.73;100.00
36726;BME280;44936;52.086;5.150;2023-07-29T06:05:17;101016.38;;;17.79;100.00
36726;BME280;44936;52.086;5.150;2023-07-29T06:07:42;101016.47;;;17.76;100.00
36726;BME280;44936;52.086;5.150;2023-07-29T06:10:12;101019.81;;;17.85;100.00
36726;BME280;44936;52.086;5.150;2023-07-29T06:12:38;101022.91;;;18.02;100.00
36726;BME280;44936;52.086;5.150;2023-07-29T06:15:04;101013.97;;;18.06;100.00
36726;BME280;44936;52.086;5.150;2023-07-29T06:17:29;101024.72;;;18.00;100.00
36726;BME280;44936;52.086;5.150;2023-07-29T06:19:54;101045.78;;;18.07;100.00
36726;BME280;44936;52.086;5.150;2023-07-29T06:22:20;101040.38;;;18.10;100.00
36726;BME280;44936;52.086;5.150;2023-07-29T06:24:45;101066.13;;;18.07;100.00
36726;BME280;44936;52.086;5.150;2023-07-29T06:27:10;101063.34;;;18.13;100.00
36726;BME280;44936;52.086;5.150;2023-07-29T06:29:36;101048.97;;;18.22;100.00
36726;BME280;44936;52.086;5.150;2023-07-29T06:32:01;101052.50;;;18.22;100.00
36726;BME280;44936;52.086;5.150;2023-07-29T06:34:27;101078.44;;;18.47;100.00
36726;BME280;44936;52.086;5.150;2023-07-29T06:36:52;101080.84;;;18.56;100.00
36726;BME280;44936;52.086;5.150;2023-07-29T06:39:17;101091.75;;;18.44;100.00
36726;BME280;44936;52.086;5.150;2023-07-29T06:41:42;101122.25;;;18.63;100.00
36726;BME280;44936;52.086;5.150;2023-07-29T06:44:08;101123.22;;;18.60;100.00
36726;BME280;44936;52.086;5.150;2023-07-29T06:46:33;101121.22;;;18.70;100.00
36726;BME280;44936;52.086;5.150;2023-07-29T06:48:59;101122.78;;;18.79;100.00
36726;BME280;44936;52.086;5.150;2023-07-29T06:51:24;101104.75;;;18.56;100.00
36726;BME280;44936;52.086;5.150;2023-07-29T06:53:49;101128.19;;;18.76;100.00
36726;BME280;44936;52.086;5.150;2023-07-29T06:56:14;101120.00;;;18.83;100.00
36726;BME280;44936;52.086;5.150;2023-07-29T06:58:40;101114.84;;;18.77;100.00
36726;BME280;44936;52.086;5.150;2023-07-29T07:01:05;101126.66;;;18.64;100.00
36726;BME280;44936;52.086;5.150;2023-07-29T07:03:31;101127.22;;;18.78;100.00
36726;BME280;44936;52.086;5.150;2023-07-29T07:05:56;101104.66;;;18.59;100.00
36726;BME280;44936;52.086;5.150;2023-07-29T07:08:21;101111.59;;;18.66;100.00
36726;BME280;44936;52.086;5.150;2023-07-29T07:10:47;101112.69;;;18.57;100.00
36726;BME280;44936;52.086;5.150;2023-07-29T07:13:12;101106.44;;;18.58;100.00
36726;BME280;44936;52.086;5.150;2023-07-29T07:15:38;101102.97;;;18.55;100.00
36726;BME280;44936;52.086;5.150;2023-07-29T07:18:03;101099.22;;;18.63;100.00
36726;BME280;44936;52.086;5.150;2023-07-29T07:20:29;101106.31;;;18.64;100.00
36726;BME280;44936;52.086;5.150;2023-07-29T07:22:54;101081.31;;;18.73;100.00
36726;BME280;44936;52.086;5.150;2023-07-29T07:25:20;101087.34;;;18.78;100.00
36726;BME280;44936;52.086;5.150;2023-07-29T07:27:45;101081.75;;;18.89;100.00
36726;BME280;44936;52.086;5.150;2023-07-29T07:30:11;101092.06;;;19.01;100.00
36726;BME280;44936;52.086;5.150;2023-07-29T07:32:36;101104.06;;;19.14;100.00
36726;BME280;44936;52.086;5.150;2023-07-29T07:35:02;101109.94;;;19.25;100.00
36726;BME280;44936;52.086;5.150;2023-07-29T07:37:27;101115.41;;;19.21;100.00
36726;BME280;44936;52.086;5.150;2023-07-29T07:39:53;101134.59;;;19.32;100.00
36726;BME280;44936;52.086;5.150;2023-07-29T07:42:18;101143.59;;;19.28;100.00
36726;BME280;44936;52.086;5.150;2023-07-29T07:44:43;101151.19;;;19.40;100.00
36726;BME280;44936;52.086;5.150;2023-07-29T07:47:08;101133.66;;;19.33;100.00
36726;BME280;44936;52.086;5.150;2023-07-29T07:49:34;101147.72;;;19.38;100.00
36726;BME280;44936;52.086;5.150;2023-07-29T07:51:59;101151.75;;;19.51;100.00
36726;BME280;44936;52.086;5.150;2023-07-29T07:54:24;101171.34;;;19.49;100.00
36726;BME280;44936;52.086;5.150;2023-07-29T07:56:50;101166.84;;;19.20;100.00
36726;BME280;44936;52.086;5.150;2023-07-29T07:59:15;101178.81;;;19.36;100.00
36726;BME280;44936;52.086;5.150;2023-07-29T08:01:40;101166.50;;;19.32;100.00
36726;BME280;44936;52.086;5.150;2023-07-29T08:04:06;101169.50;;;19.51;100.00
36726;BME280;44936;52.086;5.150;2023-07-29T08:06:32;101154.97;;;19.64;100.00
36726;BME280;44936;52.086;5.150;2023-07-29T08:08:58;101151.56;;;19.59;100.00
36726;BME280;44936;52.086;5.150;2023-07-29T08:11:24;101139.09;;;19.30;100.00
36726;BME280;44936;52.086;5.150;2023-07-29T08:13:49;101154.66;;;19.44;100.00
36726;BME280;44936;52.086;5.150;2023-07-29T08:16:15;101133.81;;;19.29;100.00
36726;BME280;44936;52.086;5.150;2023-07-29T08:18:40;101149.47;;;19.39;100.00
36726;BME280;44936;52.086;5.150;2023-07-29T08:21:06;101157.00;;;19.55;100.00
36726;BME280;44936;52.086;5.150;2023-07-29T08:23:32;101134.59;;;19.32;100.00
36726;BME280;44936;52.086;5.150;2023-07-29T08:26:01;101149.94;;;19.22;100.00
36726;BME280;44936;52.086;5.150;2023-07-29T08:28:38;101180.88;;;19.27;100.00
36726;BME280;44936;52.086;5.150;2023-07-29T08:31:04;101183.72;;;19.19;100.00
36726;BME280;44936;52.086;5.150;2023-07-29T08:33:30;101169.81;;;19.09;100.00
36726;BME280;44936;52.086;5.150;2023-07-29T08:35:56;101171.56;;;19.10;100.00
36726;BME280;44936;52.086;5.150;2023-07-29T08:38:22;101164.25;;;19.17;100.00
36726;BME280;44936;52.086;5.150;2023-07-29T08:43:33;101138.78;;;19.10;100.00
36726;BME280;44936;52.086;5.150;2023-07-29T08:46:00;101132.28;;;19.20;100.00
36726;BME280;44936;52.086;5.150;2023-07-29T08:48:41;101122.53;;;19.20;100.00
36726;BME280;44936;52.086;5.150;2023-07-29T08:51:09;101127.56;;;19.30;100.00
36726;BME280;44936;52.086;5.150;2023-07-29T08:53:35;101159.34;;;19.34;100.00
36726;BME280;44936;52.086;5.150;2023-07-29T08:56:01;101160.25;;;19.33;100.00
36726;BME280;44936;52.086;5.150;2023-07-29T08:58:27;101174.81;;;19.52;100.00
36726;BME280;44936;52.086;5.150;2023-07-29T09:00:52;101185.28;;;19.59;100.00
36726;BME280;44936;52.086;5.150;2023-07-29T09:03:18;101201.00;;;19.68;100.00
36726;BME280;44936;52.086;5.150;2023-07-29T09:05:45;101197.41;;;19.69;100.00
36726;BME280;44936;52.086;5.150;2023-07-29T09:08:11;101185.63;;;19.77;100.00
36726;BME280;44936;52.086;5.150;2023-07-29T09:10:37;101196.59;;;19.96;100.00
36726;BME280;44936;52.086;5.150;2023-07-29T09:13:03;101200.34;;;19.60;100.00
36726;BME280;44936;52.086;5.150;2023-07-29T09:15:30;101219.47;;;19.74;100.00
36726;BME280;44936;52.086;5.150;2023-07-29T09:17:57;101216.97;;;19.68;100.00
36726;BME280;44936;52.086;5.150;2023-07-29T09:20:27;101197.28;;;19.73;100.00
36726;BME280;44936;52.086;5.150;2023-07-29T09:22:58;101196.81;;;19.90;100.00
36726;BME280;44936;52.086;5.150;2023-07-29T09:25:27;101203.97;;;19.88;100.00
36726;BME280;44936;52.086;5.150;2023-07-29T09:27:58;101200.13;;;19.67;100.00
36726;BME280;44936;52.086;5.150;2023-07-29T09:30:24;101204.13;;;19.82;100.00
36726;BME280;44936;52.086;5.150;2023-07-29T09:32:57;101194.91;;;19.64;100.00
36726;BME280;44936;52.086;5.150;2023-07-29T09:35:24;101151.75;;;19.51;100.00
36726;BME280;44936;52.086;5.150;2023-07-29T09:37:51;101100.06;;;19.31;100.00
36726;BME280;44936;52.086;5.150;2023-07-29T09:40:17;101040.97;;;19.21;100.00
36726;BME280;44936;52.086;5.150;2023-07-29T09:43:09;100972.47;;;19.00;100.00
36726;BME280;44936;52.086;5.150;2023-07-29T09:45:36;100920.25;;;18.97;100.00
36726;BME280;44936;52.086;5.150;2023-07-29T09:48:03;100852.41;;;18.85;100.00
36726;BME280;44936;52.086;5.150;2023-07-29T09:50:30;100812.53;;;18.85;100.00
36726;BME280;44936;52.086;5.150;2023-07-29T09:52:56;100799.69;;;19.00;100.00
36726;BME280;44936;52.086;5.150;2023-07-29T09:55:25;100800.22;;;19.11;100.00
36726;BME280;44936;52.086;5.150;2023-07-29T09:57:59;100793.16;;;19.10;100.00
36726;BME280;44936;52.086;5.150;2023-07-29T10:00:30;100794.22;;;19.04;100.00
36726;BME280;44936;52.086;5.150;2023-07-29T10:02:57;100765.97;;;19.02;100.00
36726;BME280;44936;52.086;5.150;2023-07-29T10:05:25;100783.94;;;19.20;100.00
36726;BME280;44936;52.086;5.150;2023-07-29T10:07:51;100776.78;;;19.22;100.00
36726;BME280;44936;52.086;5.150;2023-07-29T10:10:17;100748.16;;;19.04;100.00
36726;BME280;44936;52.086;5.150;2023-07-29T10:12:43;100773.63;;;19.11;100.00
36726;BME280;44936;52.086;5.150;2023-07-29T10:15:09;100789.66;;;19.08;100.00
36726;BME280;44936;52.086;5.150;2023-07-29T10:17:39;100798.66;;;19.04;100.00
36726;BME280;44936;52.086;5.150;2023-07-29T10:20:06;100797.63;;;19.09;100.00
36726;BME280;44936;52.086;5.150;2023-07-29T10:22:43;100794.78;;;19.14;100.00
36726;BME280;44936;52.086;5.150;2023-07-29T10:25:18;100786.56;;;19.21;100.00
36726;BME280;44936;52.086;5.150;2023-07-29T10:27:56;100782.16;;;19.20;100.00
36726;BME280;44936;52.086;5.150;2023-07-29T10:30:24;100799.78;;;19.23;100.00
36726;BME280;44936;52.086;5.150;2023-07-29T10:32:50;100765.97;;;19.02;100.00
36726;BME280;44936;52.086;5.150;2023-07-29T10:35:17;100802.81;;;19.12;100.00
36726;BME280;44936;52.086;5.150;2023-07-29T10:37:43;100820.53;;;18.85;100.00
36726;BME280;44936;52.086;5.150;2023-07-29T10:40:11;100808.78;;;18.63;100.00
36726;BME280;44936;52.086;5.150;2023-07-29T10:42:58;100845.78;;;18.99;100.00
36726;BME280;44936;52.086;5.150;2023-07-29T10:45:24;100825.34;;;19.01;100.00
36726;BME280;44936;52.086;5.150;2023-07-29T10:47:49;100812.16;;;18.98;100.00
36726;BME280;44936;52.086;5.150;2023-07-29T10:50:20;100804.66;;;19.10;100.00
36726;BME280;44936;52.086;5.150;2023-07-29T10:52:51;100829.22;;;19.18;100.00
36726;BME280;44936;52.086;5.150;2023-07-29T10:55:29;100832.63;;;19.22;100.00
36726;BME280;44936;52.086;5.150;2023-07-29T10:58:07;100845.78;;;19.27;100.00
36726;BME280;44936;52.086;5.150;2023-07-29T11:00:33;100870.66;;;19.24;100.00
36726;BME280;44936;52.086;5.150;2023-07-29T11:03:00;100915.09;;;19.20;100.00
36726;BME280;44936;52.086;5.150;2023-07-29T11:05:26;100934.81;;;19.13;100.00
36726;BME280;44936;52.086;5.150;2023-07-29T11:07:52;100922.38;;;18.86;100.00
36726;BME280;44936;52.086;5.150;2023-07-29T11:10:17;100966.13;;;19.04;100.00
36726;BME280;44936;52.086;5.150;2023-07-29T11:17:39;100929.84;;;18.73;100.00
36726;BME280;44936;52.086;5.150;2023-07-29T11:20:06;100954.63;;;18.74;100.00
36726;BME280;44936;52.086;5.150;2023-07-29T11:22:35;100961.13;;;18.62;100.00
36726;BME280;44936;52.086;5.150;2023-07-29T11:25:01;100956.25;;;18.47;100.00
36726;BME280;44936;52.086;5.150;2023-07-29T11:27:26;100940.06;;;18.54;100.00
36726;BME280;44936;52.086;5.150;2023-07-29T11:30:11;100919.19;;;18.42;100.00
36726;BME280;44936;52.086;5.150;2023-07-29T11:32:39;100892.84;;;18.34;100.00
36726;BME280;44936;52.086;5.150;2023-07-29T11:35:09;100865.75;;;18.53;100.00
36726;BME280;44936;52.086;5.150;2023-07-29T11:37:36;100822.44;;;18.51;100.00
36726;BME280;44936;52.086;5.150;2023-07-29T11:40:03;100806.22;;;18.60;100.00
36726;BME280;44936;52.086;5.150;2023-07-29T11:42:31;100795.88;;;18.80;100.00
36726;BME280;44936;52.086;5.150;2023-07-29T11:44:57;100797.03;;;19.00;100.00
36726;BME280;44936;52.086;5.150;2023-07-29T11:47:24;100792.84;;;19.19;100.00
36726;BME280;44936;52.086;5.150;2023-07-29T11:49:49;100752.78;;;19.23;100.00
36726;BME280;44936;52.086;5.150;2023-07-29T11:52:15;100784.63;;;19.51;100.00
36726;BME280;44936;52.086;5.150;2023-07-29T11:54:44;100799.56;;;19.56;100.00
36726;BME280;44936;52.086;5.150;2023-07-29T11:57:10;100829.31;;;19.68;100.00
36726;BME280;44936;52.086;5.150;2023-07-29T11:59:37;100890.72;;;19.89;100.00
36726;BME280;44936;52.086;5.150;2023-07-29T12:02:10;100897.53;;;19.97;100.00
36726;BME280;44936;52.086;5.150;2023-07-29T12:04:37;100955.94;;;20.27;100.00
36726;BME280;44936;52.086;5.150;2023-07-29T12:07:04;101020.94;;;20.48;100.00
36726;BME280;44936;52.086;5.150;2023-07-29T12:09:30;101076.56;;;20.57;100.00
36726;BME280;44936;52.086;5.150;2023-07-29T12:11:56;101136.56;;;20.42;100.00
36726;BME280;44936;52.086;5.150;2023-07-29T12:14:21;101191.97;;;20.31;100.00
36726;BME280;44936;52.086;5.150;2023-07-29T12:16:49;101177.50;;;20.12;100.00
36726;BME280;44936;52.086;5.150;2023-07-29T12:19:17;101183.16;;;20.01;100.00
36726;BME280;44936;52.086;5.150;2023-07-29T12:21:43;101186.41;;;20.11;100.00
36726;BME280;44936;52.086;5.150;2023-07-29T12:24:09;101196.66;;;20.24;100.00
36726;BME280;44936;52.086;5.150;2023-07-29T12:26:36;101184.91;;;20.30;100.00
36726;BME280;44936;52.086;5.150;2023-07-29T12:29:11;101199.84;;;20.35;100.00
36726;BME280;44936;52.086;5.150;2023-07-29T12:31:37;101196.84;;;20.46;100.00
36726;BME280;44936;52.086;5.150;2023-07-29T12:34:03;101213.00;;;20.40;100.00
36726;BME280;44936;52.086;5.150;2023-07-29T12:36:49;101196.19;;;20.38;100.00
36726;BME280;44936;52.086;5.150;2023-07-29T12:39:23;101222.28;;;20.56;100.00
36726;BME280;44936;52.086;5.150;2023-07-29T12:41:50;101235.59;;;20.56;100.00
36726;BME280;44936;52.086;5.150;2023-07-29T12:44:16;101253.81;;;20.42;100.00
36726;BME280;44936;52.086;5.150;2023-07-29T12:46:41;101249.31;;;20.44;100.00
36726;BME280;44936;52.086;5.150;2023-07-29T12:49:07;101247.59;;;20.43;100.00